Time;durP1;ratioP1;P1;durP2;ratioP2;P2;SDS_P1;SDS_P2;PMS_P1;PMS_P2;Temp;Humidity;BMP_temperature;BMP_pressure;BME280_temperature;BME280_humidity;BME280_pressure;Samples;Min_cycle;Max_cycle;Signal;HPM_P1;HPM_P2
2023/03/16 00:01:41;;;;;;;5.20;1.80;;;3.20;99.90;;;;;;5073457;28;20114;-47
2023/03/16 00:04:07;;;;;;;6.27;2.03;;;3.20;99.90;;;;;;5073403;28;20036;-51
2023/03/16 00:06:35;;;;;;;5.53;2.30;;;3.20;99.90;;;;;;5073173;28;20128;-50
2023/03/16 00:09:01;;;;;;;7.93;2.13;;;3.20;99.90;;;;;;5073485;28;20029;-54
2023/03/16 00:11:27;;;;;;;8.33;2.30;;;3.20;99.90;;;;;;5073444;28;20074;-49
2023/03/16 00:13:53;;;;;;;6.43;2.13;;;3.20;99.90;;;;;;5073034;28;20045;-51
2023/03/16 00:16:19;;;;;;;4.57;2.00;;;3.20;99.90;;;;;;5073290;28;20090;-46
2023/03/16 00:18:45;;;;;;;6.83;2.10;;;3.30;99.90;;;;;;5073532;28;20032;-50
2023/03/16 00:21:13;;;;;;;5.40;2.03;;;3.30;99.90;;;;;;5073573;28;20028;-51
2023/03/16 00:23:39;;;;;;;6.47;2.30;;;3.40;99.90;;;;;;5072965;28;20097;-48
2023/03/16 00:26:07;;;;;;;4.73;1.77;;;3.40;99.90;;;;;;5073319;28;20048;-52
2023/03/16 00:28:34;;;;;;;5.43;2.30;;;3.40;99.90;;;;;;5072894;28;20032;-49
2023/03/16 00:31:04;;;;;;;4.33;2.00;;;3.40;99.90;;;;;;5055281;28;20024;-49
2023/03/16 00:33:36;;;;;;;5.30;2.07;;;3.50;99.90;;;;;;5072914;28;20032;-53
2023/03/16 00:36:08;;;;;;;7.47;2.10;;;3.50;99.90;;;;;;5073267;28;20032;-48
2023/03/16 00:38:34;;;;;;;;;;;3.50;99.90;;;;;;5073445;28;20409;-51
2023/03/16 00:41:05;;;;;;;6.20;2.13;;;3.50;99.90;;;;;;5055083;28;20569;-47
2023/03/16 00:43:39;;;;;;;6.07;2.20;;;3.50;99.90;;;;;;5054862;28;20214;-46
2023/03/16 00:46:06;;;;;;;3.43;1.83;;;3.50;99.90;;;;;;5072965;28;20043;-51
2023/03/16 00:48:36;;;;;;;5.93;2.00;;;3.60;99.90;;;;;;5072639;28;20108;-46
2023/03/16 00:51:05;;;;;;;6.37;2.23;;;3.60;99.90;;;;;;5072789;28;20493;-46
2023/03/16 00:53:35;;;;;;;5.07;1.73;;;3.60;99.90;;;;;;5054456;28;20029;-46
2023/03/16 00:56:05;;;;;;;4.80;1.90;;;3.60;99.90;;;;;;5072867;28;20025;-46
2023/03/16 00:58:35;;;;;;;5.57;2.00;;;3.70;99.90;;;;;;5072264;28;20121;-46
2023/03/16 01:01:02;;;;;;;7.23;2.30;;;3.70;99.90;;;;;;5072738;28;20300;-50
2023/03/16 01:03:28;;;;;;;5.23;1.80;;;3.70;99.90;;;;;;5072179;28;20036;-49
2023/03/16 01:05:58;;;;;;;5.53;1.90;;;3.70;99.90;;;;;;5072252;28;20113;-51
2023/03/16 01:08:29;;;;;;;3.80;2.00;;;3.80;99.90;;;;;;5054109;28;20472;-48
2023/03/16 01:10:54;;;;;;;7.43;2.17;;;3.80;99.90;;;;;;5072201;28;20036;-52
2023/03/16 01:13:21;;;;;;;3.47;1.70;;;3.80;99.90;;;;;;5072053;28;20028;-50
2023/03/16 01:15:50;;;;;;;2.87;1.20;;;3.80;99.90;;;;;;5054277;28;20063;-52
2023/03/16 01:18:16;;;;;;;4.00;1.83;;;3.80;99.90;;;;;;5054012;28;20035;-50
2023/03/16 01:20:49;;;;;;;4.20;1.53;;;3.90;99.90;;;;;;5072258;28;20063;-51
2023/03/16 01:23:16;;;;;;;4.23;1.90;;;3.90;99.90;;;;;;5053989;28;20029;-47
2023/03/16 01:25:43;;;;;;;6.73;1.93;;;3.80;99.90;;;;;;5071894;28;20134;-52
2023/03/16 01:28:09;;;;;;;5.73;2.00;;;3.90;99.90;;;;;;5071708;28;20481;-49
2023/03/16 01:30:35;;;;;;;5.53;2.00;;;3.80;99.90;;;;;;5053814;28;20029;-49
2023/03/16 01:33:01;;;;;;;5.60;2.00;;;3.90;99.90;;;;;;5053685;28;20070;-50
2023/03/16 01:35:27;;;;;;;4.27;1.80;;;3.90;99.90;;;;;;5053206;28;20033;-51
2023/03/16 01:37:53;;;;;;;8.07;2.20;;;3.90;99.90;;;;;;5053446;28;20047;-49
2023/03/16 01:40:23;;;;;;;5.70;2.40;;;3.90;99.90;;;;;;5053651;28;20143;-48
2023/03/16 01:43:00;;;;;;;6.23;1.80;;;4.00;99.90;;;;;;5053665;28;20108;-47
2023/03/16 01:46:08;;;;;;;5.50;1.73;;;4.00;99.90;;;;;;5053237;28;20032;-45
2023/03/16 01:49:02;;;;;;;7.13;1.90;;;4.00;99.90;;;;;;5045910;28;20032;-47
2023/03/16 01:51:39;;;;;;;3.87;1.90;;;4.00;99.90;;;;;;5053430;28;20497;-48
2023/03/16 01:54:33;;;;;;;5.33;1.90;;;4.00;99.90;;;;;;5071034;28;20029;-48
2023/03/16 01:57:13;;;;;;;2.03;1.23;;;4.00;99.90;;;;;;5053056;28;20120;-48
2023/03/16 01:59:48;;;;;;;7.00;2.63;;;4.00;99.90;;;;;;5053246;28;20046;-48
2023/03/16 02:02:22;;;;;;;7.83;1.73;;;4.00;99.90;;;;;;5053125;28;20024;-50
2023/03/16 02:05:02;;;;;;;5.73;1.90;;;4.00;99.90;;;;;;5052794;28;20033;-48
2023/03/16 02:07:33;;;;;;;9.30;2.20;;;4.00;99.90;;;;;;5053026;28;20380;-51
2023/03/16 02:10:01;;;;;;;5.67;1.60;;;4.00;99.90;;;;;;5052914;28;20032;-49
2023/03/16 02:12:28;;;;;;;4.10;1.45;;;4.10;99.90;;;;;;5053129;28;20032;-48
2023/03/16 02:14:56;;;;;;;4.10;1.53;;;4.00;99.90;;;;;;5052938;28;20036;-48
2023/03/16 02:17:25;;;;;;;3.50;1.80;;;4.10;99.90;;;;;;5052808;28;20102;-49
2023/03/16 02:19:55;;;;;;;6.50;2.00;;;4.10;99.90;;;;;;5052826;28;20078;-50
2023/03/16 02:22:23;;;;;;;5.20;1.80;;;4.10;99.90;;;;;;5052869;28;20052;-47
2023/03/16 02:24:51;;;;;;;5.18;1.80;;;4.10;99.90;;;;;;5052385;28;20059;-49
2023/03/16 02:27:34;;;;;;;4.47;1.60;;;4.10;99.90;;;;;;5052633;28;20040;-49
2023/03/16 02:30:10;;;;;;;4.63;1.50;;;4.10;99.90;;;;;;5070637;28;20024;-50
2023/03/16 02:32:50;;;;;;;7.23;1.97;;;4.10;99.90;;;;;;5052877;28;20049;-47
2023/03/16 02:35:16;;;;;;;4.97;1.90;;;4.10;99.90;;;;;;5052448;28;20108;-48
2023/03/16 02:37:42;;;;;;;4.57;1.73;;;4.10;99.90;;;;;;5052311;28;20127;-55
2023/03/16 02:40:21;;;;;;;4.13;1.77;;;4.10;99.90;;;;;;5052480;28;20037;-49
2023/03/16 02:43:05;;;;;;;5.07;1.60;;;4.10;99.90;;;;;;5052690;28;20047;-49
2023/03/16 02:45:44;;;;;;;3.63;2.00;;;4.10;99.90;;;;;;5051536;28;20116;-51
2023/03/16 02:48:25;;;;;;;5.03;1.43;;;4.00;99.90;;;;;;5052261;28;20028;-50
2023/03/16 02:50:53;;;;;;;3.87;1.20;;;4.10;99.90;;;;;;5052652;28;20024;-49
2023/03/16 02:53:19;;;;;;;2.63;1.20;;;4.10;99.90;;;;;;5070186;28;20028;-48
2023/03/16 02:55:46;;;;;;;8.27;2.33;;;4.10;99.90;;;;;;5052357;28;20032;-52
2023/03/16 02:58:13;;;;;;;5.97;2.10;;;4.10;99.90;;;;;;5052102;28;20485;-48
2023/03/16 03:00:39;;;;;;;5.80;1.83;;;4.00;99.90;;;;;;5070330;28;20392;-50
2023/03/16 03:03:08;;;;;;;4.03;1.70;;;4.10;99.90;;;;;;5070411;28;20053;-50
2023/03/16 03:05:35;;;;;;;4.45;1.58;;;4.00;99.90;;;;;;5052181;28;20052;-53
2023/03/16 03:08:01;;;;;;;6.00;1.80;;;4.00;99.90;;;;;;5052382;28;20105;-50
2023/03/16 03:10:27;;;;;;;4.43;1.63;;;4.00;99.90;;;;;;5052278;28;20029;-50
2023/03/16 03:12:53;;;;;;;6.77;1.80;;;4.00;99.90;;;;;;5035589;28;20025;-51
2023/03/16 03:15:20;;;;;;;2.77;1.80;;;4.00;99.90;;;;;;5051923;28;20082;-52
2023/03/16 03:17:58;;;;;;;5.20;2.00;;;4.00;99.90;;;;;;5052100;28;20507;-46
2023/03/16 03:20:27;;;;;;;2.13;1.20;;;4.10;99.90;;;;;;5070276;28;20028;-50
2023/03/16 03:22:53;;;;;;;2.90;1.40;;;4.10;99.90;;;;;;5051987;28;20119;-48
2023/03/16 03:25:20;;;;;;;4.73;1.93;;;4.10;99.90;;;;;;5051654;28;20028;-52
2023/03/16 03:27:48;;;;;;;3.73;1.87;;;4.10;99.90;;;;;;5069811;28;20033;-49
2023/03/16 03:30:18;;;;;;;4.93;1.70;;;4.10;99.90;;;;;;5052108;28;20028;-47
2023/03/16 03:32:46;;;;;;;;;;;4.10;99.90;;;;;;5052755;28;20035;-47
2023/03/16 03:35:14;;;;;;;5.07;1.97;;;4.10;99.90;;;;;;5051853;28;20004;-52
2023/03/16 03:37:43;;;;;;;5.37;1.57;;;4.20;99.90;;;;;;5051802;28;20031;-51
2023/03/16 03:40:11;;;;;;;4.67;1.43;;;4.20;99.90;;;;;;5051719;28;20032;-52
2023/03/16 03:42:39;;;;;;;3.63;1.30;;;4.10;99.90;;;;;;5051873;28;20463;-48
2023/03/16 03:45:06;;;;;;;4.63;1.70;;;4.10;99.90;;;;;;5051616;28;20036;-52
2023/03/16 03:47:33;;;;;;;4.37;1.63;;;4.10;99.90;;;;;;5051710;28;20096;-49
2023/03/16 03:50:00;;;;;;;3.93;1.57;;;4.20;99.90;;;;;;5051806;28;20066;-50
2023/03/16 03:52:28;;;;;;;4.37;1.67;;;4.10;99.90;;;;;;5051712;28;20116;-48
2023/03/16 03:54:54;;;;;;;2.77;1.50;;;4.20;99.90;;;;;;5051637;28;20095;-48
2023/03/16 03:57:19;;;;;;;2.93;0.90;;;4.20;99.90;;;;;;5071304;28;20037;-52
2023/03/16 03:59:45;;;;;;;5.13;1.87;;;4.20;99.90;;;;;;5073402;28;20056;-49
2023/03/16 04:02:19;;;;;;;3.00;1.70;;;4.20;99.90;;;;;;5073933;28;20033;-50
2023/03/16 04:04:49;;;;;;;;;;;4.20;99.90;;;;;;5073587;28;20036;-52
2023/03/16 04:07:15;;;;;;;4.93;1.63;;;4.20;99.90;;;;;;5055053;28;19908;-51
2023/03/16 04:09:42;;;;;;;4.07;1.70;;;4.20;99.90;;;;;;5055185;28;20028;-53
2023/03/16 04:12:16;;;;;;;6.20;2.10;;;4.20;99.90;;;;;;5055343;28;20024;-48
2023/03/16 04:14:43;;;;;;;4.10;1.73;;;4.20;99.90;;;;;;5054980;28;20021;-50
2023/03/16 04:17:09;;;;;;;3.93;1.40;;;4.20;99.90;;;;;;5055190;28;20024;-50
2023/03/16 04:19:37;;;;;;;4.57;1.90;;;4.20;99.90;;;;;;5055056;28;20031;-48
2023/03/16 04:22:08;;;;;;;4.87;1.90;;;4.20;99.90;;;;;;5055154;28;20024;-46
2023/03/16 04:24:34;;;;;;;5.80;2.00;;;4.20;99.90;;;;;;5054759;28;20060;-49
2023/03/16 04:27:01;;;;;;;5.27;1.77;;;4.20;99.90;;;;;;5054805;28;20029;-50
2023/03/16 04:29:28;;;;;;;2.47;1.33;;;4.20;99.90;;;;;;5054936;28;20054;-51
2023/03/16 04:31:56;;;;;;;4.70;2.00;;;4.20;99.90;;;;;;5054915;28;20041;-51
2023/03/16 04:34:23;;;;;;;4.90;1.90;;;4.20;99.90;;;;;;5054807;28;20099;-52
2023/03/16 04:36:51;;;;;;;4.40;1.70;;;4.20;99.90;;;;;;5054593;28;20028;-47
2023/03/16 04:39:21;;;;;;;3.77;1.23;;;4.20;99.90;;;;;;5054776;28;20307;-48
2023/03/16 04:41:47;;;;;;;4.60;2.00;;;4.20;99.90;;;;;;5054712;28;20094;-50
2023/03/16 04:44:19;;;;;;;7.03;2.00;;;4.20;99.90;;;;;;5054397;28;20032;-47
2023/03/16 04:46:44;;;;;;;5.37;2.23;;;4.20;99.90;;;;;;5054123;28;20036;-50
2023/03/16 04:49:11;;;;;;;3.77;1.90;;;4.10;99.90;;;;;;5054618;28;20115;-51
2023/03/16 04:51:41;;;;;;;5.03;2.50;;;4.20;99.90;;;;;;5054477;28;20036;-48
2023/03/16 04:54:10;;;;;;;4.20;1.77;;;4.20;99.90;;;;;;5054185;28;20024;-51
2023/03/16 04:56:40;;;;;;;;;;;4.20;99.90;;;;;;5054854;28;20052;-48
2023/03/16 04:59:10;;;;;;;3.40;1.80;;;4.20;99.90;;;;;;5054337;28;20368;-50
2023/03/16 05:01:52;;;;;;;5.13;2.10;;;4.20;99.90;;;;;;5054283;28;20028;-51
2023/03/16 05:04:20;;;;;;;4.97;2.10;;;4.20;99.90;;;;;;5072111;28;20043;-50
2023/03/16 05:06:47;;;;;;;5.30;2.27;;;4.20;99.90;;;;;;5054052;28;20308;-48
2023/03/16 05:09:14;;;;;;;5.17;2.33;;;4.20;99.90;;;;;;5053289;28;20036;-52
2023/03/16 05:11:39;;;;;;;5.33;2.57;;;4.20;99.90;;;;;;5054213;28;20029;-50
2023/03/16 05:14:08;;;;;;;5.40;2.55;;;4.20;99.90;;;;;;5053970;28;20029;-47
2023/03/16 05:16:45;;;;;;;4.17;2.10;;;4.10;99.90;;;;;;5053953;28;20041;-49
2023/03/16 05:19:11;;;;;;;5.27;2.10;;;4.20;99.90;;;;;;5054056;28;20064;-47
2023/03/16 05:21:37;;;;;;;8.00;3.27;;;4.20;99.90;;;;;;5053943;28;20062;-52
2023/03/16 05:24:07;;;;;;;6.65;2.70;;;4.20;99.90;;;;;;5053484;28;20056;-48
2023/03/16 05:26:33;;;;;;;4.87;2.67;;;4.20;99.90;;;;;;5053633;28;20033;-49
2023/03/16 05:29:00;;;;;;;6.97;2.00;;;4.20;99.90;;;;;;5053823;28;20021;-47
2023/03/16 05:31:31;;;;;;;5.30;2.08;;;4.20;99.90;;;;;;5053797;28;20028;-50
2023/03/16 05:33:59;;;;;;;6.77;2.17;;;4.20;99.90;;;;;;5053416;28;20415;-52
2023/03/16 05:36:24;;;;;;;11.27;2.73;;;4.20;99.90;;;;;;5053379;28;20036;-51
2023/03/16 05:38:54;;;;;;;;;;;4.20;99.90;;;;;;5054069;28;20561;-50
2023/03/16 05:41:36;;;;;;;6.40;3.30;;;4.20;99.90;;;;;;5053684;28;20325;-51
2023/03/16 05:44:33;;;;;;;5.50;2.53;;;4.20;99.90;;;;;;5037080;28;20385;-49
2023/03/16 05:47:13;;;;;;;6.10;2.87;;;4.20;99.90;;;;;;5053249;28;20028;-46
2023/03/16 05:49:44;;;;;;;5.70;2.93;;;4.20;99.90;;;;;;5053434;28;20111;-51
2023/03/16 05:52:20;;;;;;;7.60;3.30;;;4.20;99.90;;;;;;5053246;28;20028;-47
2023/03/16 05:54:46;;;;;;;7.80;3.20;;;4.20;99.90;;;;;;5070812;28;20031;-49
2023/03/16 05:57:12;;;;;;;5.40;2.73;;;4.30;99.90;;;;;;5052817;28;20029;-49
2023/03/16 05:59:40;;;;;;;7.13;2.77;;;4.30;99.90;;;;;;5052839;28;20035;-51
2023/03/16 06:02:09;;;;;;;6.23;3.20;;;4.30;99.90;;;;;;5053113;28;20502;-49
2023/03/16 06:04:35;;;;;;;5.43;2.63;;;4.30;99.90;;;;;;5052836;28;20374;-50
2023/03/16 06:07:01;;;;;;;7.90;3.43;;;4.30;99.90;;;;;;5052828;28;20028;-48
2023/03/16 06:09:28;;;;;;;6.67;2.97;;;4.30;99.90;;;;;;5052934;28;20028;-49
2023/03/16 06:11:54;;;;;;;6.60;3.00;;;4.30;99.90;;;;;;5052956;28;20031;-50
2023/03/16 06:14:20;;;;;;;6.57;2.73;;;4.40;99.90;;;;;;5052609;28;20021;-50
2023/03/16 06:16:46;;;;;;;7.93;3.63;;;4.40;99.90;;;;;;5052714;28;20127;-54
2023/03/16 06:19:13;;;;;;;8.10;3.63;;;4.40;99.90;;;;;;5052842;28;20028;-48
2023/03/16 06:21:40;;;;;;;11.27;3.47;;;4.50;99.90;;;;;;5052624;28;20408;-50
2023/03/16 06:24:08;;;;;;;9.03;3.70;;;4.50;99.90;;;;;;5017581;22;1102898;-52
2023/03/16 06:26:35;;;;;;;6.97;3.30;;;4.50;99.90;;;;;;5029359;28;20487;-53
2023/03/16 06:29:03;;;;;;;6.20;3.57;;;4.50;99.90;;;;;;5029467;28;20143;-57
2023/03/16 06:31:32;;;;;;;8.73;3.40;;;4.50;99.90;;;;;;5029534;28;20029;-56
2023/03/16 06:34:00;;;;;;;6.27;3.70;;;4.60;99.90;;;;;;5035775;28;20029;-54
2023/03/16 06:36:26;;;;;;;5.17;2.43;;;4.50;99.90;;;;;;5049172;28;20356;-53
2023/03/16 06:38:55;;;;;;;8.77;3.67;;;4.60;99.90;;;;;;5049252;28;20037;-50
2023/03/16 06:41:29;;;;;;;7.97;2.97;;;4.60;99.90;;;;;;5049275;28;20513;-50
2023/03/16 06:43:54;;;;;;;11.53;6.10;;;4.70;99.90;;;;;;5048986;28;20040;-50
2023/03/16 06:46:20;;;;;;;6.40;3.33;;;4.70;99.90;;;;;;5048818;28;20033;-49
2023/03/16 06:48:46;;;;;;;7.93;3.70;;;4.80;99.90;;;;;;5050349;28;20025;-50
2023/03/16 06:51:12;;;;;;;3.23;2.00;;;4.80;99.90;;;;;;5049161;28;20083;-53
2023/03/16 06:53:38;;;;;;;11.13;3.20;;;4.90;99.90;;;;;;5048838;28;20032;-51
2023/03/16 06:56:05;;;;;;;8.47;3.20;;;4.90;99.90;;;;;;5049141;28;20036;-54
2023/03/16 06:58:35;;;;;;;7.23;3.33;;;5.00;99.90;;;;;;5048941;28;20071;-50
2023/03/16 07:01:04;;;;;;;7.60;3.70;;;5.10;99.90;;;;;;5048994;28;20080;-53
2023/03/16 07:03:30;;;;;;;7.07;3.38;;;5.10;99.90;;;;;;5050087;28;20025;-51
2023/03/16 07:06:02;;;;;;;5.97;2.80;;;5.20;99.90;;;;;;5048997;28;20395;-52
2023/03/16 07:08:28;;;;;;;11.37;3.60;;;5.20;99.90;;;;;;5050075;28;20021;-49
2023/03/16 07:10:54;;;;;;;8.83;3.33;;;5.30;99.90;;;;;;5048869;28;20029;-51
2023/03/16 07:13:20;;;;;;;7.90;3.10;;;5.40;99.90;;;;;;5048684;28;20079;-48
2023/03/16 07:15:51;;;;;;;5.70;2.67;;;5.50;99.90;;;;;;5048796;28;20036;-51
2023/03/16 07:18:17;;;;;;;8.77;3.60;;;5.50;99.90;;;;;;5048734;28;20033;-49
2023/03/16 07:20:44;;;;;;;7.20;3.27;;;5.40;99.90;;;;;;5048786;28;20029;-50
2023/03/16 07:23:11;;;;;;;10.23;3.40;;;5.50;99.90;;;;;;5048795;28;20025;-49
2023/03/16 07:25:38;;;;;;;7.63;3.03;;;5.50;99.90;;;;;;5049740;28;20052;-53
2023/03/16 07:28:04;;;;;;;7.73;3.67;;;5.60;99.90;;;;;;5048846;28;20434;-54
2023/03/16 07:30:36;;;;;;;7.03;2.60;;;5.60;99.90;;;;;;5048888;28;20107;-52
2023/03/16 07:33:01;;;;;;;6.27;3.20;;;5.60;99.90;;;;;;5052684;28;20112;-50
2023/03/16 07:35:30;;;;;;;5.10;3.43;;;5.70;99.90;;;;;;5052382;28;20057;-51
2023/03/16 07:37:55;;;;;;;6.13;3.00;;;5.70;99.90;;;;;;5052438;28;20025;-52
2023/03/16 07:40:23;;;;;;;5.90;3.00;;;5.80;99.90;;;;;;5052548;28;20028;-52
2023/03/16 07:42:49;;;;;;;8.03;3.80;;;5.80;99.90;;;;;;5052410;28;20029;-49
2023/03/16 07:45:25;;;;;;;14.30;6.07;;;5.80;99.90;;;;;;5052142;28;20028;-52
2023/03/16 07:47:51;;;;;;;7.47;3.57;;;5.80;99.90;;;;;;5053438;28;20389;-54
2023/03/16 07:50:29;;;;;;;7.67;3.20;;;5.80;99.90;;;;;;5052348;28;20025;-49
2023/03/16 07:52:55;;;;;;;8.20;3.57;;;5.70;99.90;;;;;;5052279;28;20036;-56
2023/03/16 07:55:21;;;;;;;6.50;3.57;;;5.70;99.90;;;;;;5052081;28;20497;-53
2023/03/16 07:57:48;;;;;;;6.77;2.83;;;5.60;99.90;;;;;;5052117;28;20288;-56
2023/03/16 08:00:22;;;;;;;8.43;3.10;;;5.60;99.90;;;;;;5052248;28;20116;-54
2023/03/16 08:02:50;;;;;;;8.07;3.80;;;5.60;99.90;;;;;;5052036;28;20063;-53
2023/03/16 08:05:16;;;;;;;7.57;3.23;;;5.60;99.90;;;;;;5035205;28;20043;-52
2023/03/16 08:07:47;;;;;;;7.73;3.13;;;5.60;99.90;;;;;;5051766;28;20425;-54
2023/03/16 08:10:17;;;;;;;7.10;3.47;;;5.60;99.90;;;;;;5052196;28;20077;-53
2023/03/16 08:12:50;;;;;;;5.93;3.10;;;5.60;99.90;;;;;;5051913;28;20135;-51
2023/03/16 08:15:18;;;;;;;6.13;3.20;;;5.60;99.90;;;;;;5051650;28;20043;-54
2023/03/16 08:17:44;;;;;;;5.17;2.57;;;5.60;99.90;;;;;;5051619;28;20036;-52
2023/03/16 08:20:15;;;;;;;6.77;3.33;;;5.70;99.90;;;;;;5051695;28;20036;-53
2023/03/16 08:22:45;;;;;;;5.33;2.40;;;5.70;99.90;;;;;;5051616;28;20041;-55
2023/03/16 08:25:12;;;;;;;6.68;3.35;;;5.80;99.90;;;;;;5051392;28;20120;-53
2023/03/16 08:27:44;;;;;;;5.67;3.53;;;5.70;99.90;;;;;;5051498;28;20398;-54
2023/03/16 08:30:11;;;;;;;5.83;2.87;;;5.80;99.90;;;;;;5051563;28;20025;-53
2023/03/16 08:32:41;;;;;;;8.30;2.97;;;5.90;99.90;;;;;;5051464;28;20090;-53
2023/03/16 08:35:13;;;;;;;7.33;3.57;;;5.90;99.90;;;;;;5051360;28;20067;-50
2023/03/16 08:37:40;;;;;;;6.97;3.13;;;5.90;99.90;;;;;;5051368;28;20055;-55
2023/03/16 08:40:09;;;;;;;7.10;3.60;;;5.90;99.90;;;;;;5051444;28;20048;-54
2023/03/16 08:42:37;;;;;;;6.80;3.47;;;5.90;99.90;;;;;;5051227;28;20049;-50
2023/03/16 08:45:08;;;;;;;10.20;3.63;;;5.90;99.90;;;;;;5049826;28;20033;-53
2023/03/16 08:47:36;;;;;;;6.80;3.77;;;5.80;99.90;;;;;;5051143;28;20029;-53
2023/03/16 08:50:04;;;;;;;6.57;3.73;;;5.90;99.90;;;;;;5051227;28;20371;-53
2023/03/16 08:52:32;;;;;;;7.93;3.20;;;6.00;99.90;;;;;;5052754;28;20084;-52
2023/03/16 08:54:58;;;;;;;6.07;3.13;;;6.00;99.90;;;;;;5050952;28;20036;-56
2023/03/16 08:57:25;;;;;;;3.77;1.93;;;6.10;99.90;;;;;;5052234;28;20098;-54
2023/03/16 08:59:50;;;;;;;7.13;3.40;;;6.10;99.90;;;;;;5052283;28;20044;-54
2023/03/16 09:02:16;;;;;;;8.00;3.80;;;6.10;99.90;;;;;;5052318;28;20028;-52
2023/03/16 09:04:42;;;;;;;7.67;3.67;;;6.20;99.90;;;;;;5052089;28;20040;-51
2023/03/16 09:07:08;;;;;;;5.83;3.43;;;6.10;99.90;;;;;;5052083;28;20021;-53
2023/03/16 09:09:34;;;;;;;6.60;3.10;;;6.20;99.90;;;;;;5052212;28;20032;-54
2023/03/16 09:12:01;;;;;;;7.03;3.53;;;6.40;99.90;;;;;;5052215;28;20025;-52
2023/03/16 09:14:27;;;;;;;6.37;3.13;;;6.40;99.90;;;;;;5051831;28;20021;-51
2023/03/16 09:16:53;;;;;;;6.13;3.63;;;6.40;99.90;;;;;;5051838;28;20025;-51
2023/03/16 09:19:20;;;;;;;8.90;3.90;;;6.40;99.90;;;;;;5052009;28;20496;-53
2023/03/16 09:21:45;;;;;;;8.47;3.83;;;6.40;99.90;;;;;;5051933;28;20481;-53
2023/03/16 09:24:13;;;;;;;6.43;3.10;;;6.50;99.90;;;;;;5051510;28;20051;-54
2023/03/16 09:26:38;;;;;;;7.57;3.70;;;6.60;99.90;;;;;;5051658;28;20060;-54
2023/03/16 09:29:05;;;;;;;8.57;3.67;;;6.60;99.90;;;;;;5051639;28;20044;-55
2023/03/16 09:31:32;;;;;;;7.83;3.77;;;6.60;99.90;;;;;;5051828;28;20021;-53
2023/03/16 09:33:58;;;;;;;8.40;4.13;;;6.70;99.90;;;;;;5051438;28;20119;-54
2023/03/16 09:36:26;;;;;;;9.33;3.30;;;6.90;99.90;;;;;;5051556;28;20116;-54
2023/03/16 09:38:52;;;;;;;6.93;3.53;;;7.00;99.90;;;;;;5051649;28;20524;-51
2023/03/16 09:41:39;;;;;;;8.00;3.93;;;7.00;99.90;;;;;;5051652;28;20494;-55
2023/03/16 09:44:29;;;;;;;4.87;2.47;;;7.10;99.90;;;;;;5051433;28;20047;-56
2023/03/16 09:46:59;;;;;;;5.60;3.40;;;7.20;99.90;;;;;;5051293;28;20039;-56
2023/03/16 09:49:31;;;;;;;6.20;3.57;;;7.40;99.90;;;;;;5051534;28;20389;-54
2023/03/16 09:52:34;;;;;;;8.90;3.80;;;7.30;99.90;;;;;;5051374;28;20108;-55
2023/03/16 09:55:15;;;;;;;8.53;4.30;;;7.30;99.90;;;;;;5050765;28;20196;-51
2023/03/16 09:57:43;;;;;;;8.37;3.77;;;7.20;99.90;;;;;;5051587;28;20025;-53
2023/03/16 10:00:25;;;;;;;7.70;3.50;;;7.30;99.90;;;;;;5051079;28;20057;-52
2023/03/16 10:03:14;;;;;;;6.10;3.00;;;7.40;99.90;;;;;;5051094;28;20143;-52
2023/03/16 10:05:40;;;;;;;6.05;3.25;;;7.50;99.90;;;;;;5051069;28;20044;-55
2023/03/16 10:08:20;;;;;;;12.20;4.10;;;7.50;99.90;;;;;;5050796;28;20037;-53
2023/03/16 10:11:11;;;;;;;7.93;3.40;;;7.60;99.90;;;;;;5050985;28;20032;-54
2023/03/16 10:13:49;;;;;;;8.20;3.33;;;7.70;99.90;;;;;;5050930;28;20116;-53
2023/03/16 10:16:35;;;;;;;7.40;3.70;;;7.70;99.90;;;;;;5050981;28;20063;-54
2023/03/16 10:19:20;;;;;;;6.60;3.40;;;7.80;99.90;;;;;;5050476;28;20033;-51
2023/03/16 10:21:49;;;;;;;6.60;3.53;;;7.90;99.90;;;;;;5050952;28;20061;-50
2023/03/16 10:24:35;;;;;;;8.27;3.22;;;8.10;99.90;;;;;;5050651;28;20044;-56
2023/03/16 10:27:04;;;;;;;5.47;2.67;;;8.10;99.90;;;;;;5050592;28;20029;-54
2023/03/16 10:29:35;;;;;;;;;;;8.00;99.90;;;;;;5051378;28;20052;-52
2023/03/16 10:32:12;;;;;;;5.80;3.13;;;8.10;99.90;;;;;;5050918;28;20304;-49
2023/03/16 10:34:38;;;;;;;7.17;3.30;;;8.00;99.90;;;;;;5050611;28;20025;-54
2023/03/16 10:37:04;;;;;;;5.23;2.53;;;8.10;99.90;;;;;;5050532;28;20448;-54
2023/03/16 10:39:41;;;;;;;5.87;2.80;;;8.10;99.90;;;;;;5050572;28;20427;-52
2023/03/16 10:42:16;;;;;;;5.37;2.90;;;8.20;99.90;;;;;;5050528;28;20032;-51
2023/03/16 10:44:43;;;;;;;5.43;2.63;;;8.30;99.90;;;;;;5050251;28;20039;-53
2023/03/16 10:47:23;;;;;;;5.27;2.23;;;8.50;99.90;;;;;;5050226;28;20508;-51
2023/03/16 10:49:50;;;;;;;6.77;3.00;;;8.80;99.90;;;;;;5050774;28;20086;-54
2023/03/16 10:52:38;;;;;;;6.70;3.10;;;9.00;99.90;;;;;;5050321;28;20116;-51
2023/03/16 10:55:39;;;;;;;8.27;2.95;;;9.30;99.90;;;;;;5050233;28;20033;-52
2023/03/16 10:58:08;;;;;;;11.70;3.33;;;9.40;99.60;;;;;;5049954;28;20029;-52
2023/03/16 11:00:37;;;;;;;4.47;2.55;;;9.50;99.60;;;;;;5050283;28;20036;-52
2023/03/16 11:03:21;;;;;;;5.78;2.63;;;9.50;99.20;;;;;;5050451;28;20033;-54
2023/03/16 11:05:55;;;;;;;7.80;3.10;;;9.50;99.10;;;;;;5050476;28;20227;-53
2023/03/16 11:08:24;;;;;;;9.00;3.50;;;9.40;99.20;;;;;;5053610;28;20496;-50
2023/03/16 11:10:59;;;;;;;5.03;2.47;;;9.50;99.40;;;;;;5054500;28;20452;-51
2023/03/16 11:13:34;;;;;;;6.00;2.40;;;9.60;98.70;;;;;;5054172;28;20083;-54
2023/03/16 11:16:16;;;;;;;5.90;2.47;;;9.90;98.50;;;;;;5054321;28;20025;-51
2023/03/16 11:18:49;;;;;;;5.03;2.77;;;10.30;97.90;;;;;;5054303;28;20040;-54
2023/03/16 11:21:33;;;;;;;6.83;3.30;;;10.60;97.40;;;;;;5054353;28;20395;-53
2023/03/16 11:24:02;;;;;;;5.50;2.50;;;11.00;96.60;;;;;;5053916;28;20501;-54
2023/03/16 11:26:32;;;;;;;;;;;11.30;95.30;;;;;;5054508;28;20033;-51
2023/03/16 11:29:19;;;;;;;6.40;3.27;;;11.40;95.10;;;;;;5054069;28;20292;-53
2023/03/16 11:31:48;;;;;;;7.50;2.70;;;11.60;94.40;;;;;;5054513;28;20033;-53
2023/03/16 11:34:16;;;;;;;6.80;2.80;;;12.10;93.80;;;;;;5053704;28;20025;-52
2023/03/16 11:36:53;;;;;;;16.50;8.55;;;12.30;92.40;;;;;;5054091;28;20068;-50
2023/03/16 11:39:26;;;;;;;7.20;2.70;;;12.70;92.40;;;;;;5053890;28;20029;-52
2023/03/16 11:42:03;;;;;;;7.03;4.05;;;13.00;90.70;;;;;;5053989;28;20115;-55
2023/03/16 11:44:54;;;;;;;4.68;2.38;;;13.70;89.70;;;;;;5053471;28;20561;-51
2023/03/16 11:47:26;;;;;;;7.57;2.22;;;14.00;86.60;;;;;;5053821;28;20041;-50
2023/03/16 11:49:57;;;;;;;7.13;3.08;;;13.80;85.20;;;;;;5053723;28;20437;-50
2023/03/16 11:52:24;;;;;;;5.03;2.58;;;13.50;86.50;;;;;;5053796;28;20028;-54
2023/03/16 11:54:49;;;;;;;6.90;2.50;;;13.40;87.00;;;;;;5053248;28;20017;-53
2023/03/16 11:57:36;;;;;;;7.45;2.95;;;14.00;85.10;;;;;;5053606;28;20036;-52
2023/03/16 12:00:05;;;;;;;6.22;2.30;;;14.50;80.80;;;;;;5053664;28;20033;-50
2023/03/16 12:02:56;;;;;;;5.50;2.58;;;14.30;81.80;;;;;;5053562;28;20064;-54
2023/03/16 12:05:46;;;;;;;10.40;2.63;;;14.10;81.90;;;;;;5052987;28;20033;-50
2023/03/16 12:09:12;;;;;;;5.35;2.53;;;14.00;81.80;;;;;;5053385;28;20397;-52
2023/03/16 12:11:50;;;;;;;7.43;2.15;;;14.00;82.70;;;;;;5020505;28;20041;-50
2023/03/16 12:14:27;;;;;;;7.53;2.25;;;12.90;83.80;;;;;;5052951;28;20465;-51
2023/03/16 12:17:02;;;;;;;3.97;2.20;;;12.90;86.10;;;;;;5053055;28;20068;-55
2023/03/16 12:20:01;;;;;;;7.20;2.47;;;12.70;86.40;;;;;;5052842;28;20114;-52
2023/03/16 12:22:29;;;;;;;6.75;2.70;;;12.30;87.80;;;;;;5053240;28;20029;-49
2023/03/16 12:24:55;;;;;;;5.60;2.15;;;12.00;87.90;;;;;;5067469;22;20075;-50
2023/03/16 12:27:25;;;;;;;5.37;2.10;;;11.70;89.10;;;;;;5073159;28;20048;-51
2023/03/16 12:30:03;;;;;;;6.87;2.70;;;11.50;89.70;;;;;;5072998;28;20107;-50
2023/03/16 12:32:46;;;;;;;4.97;2.10;;;11.30;90.50;;;;;;5072969;28;20450;-49
2023/03/16 12:35:42;;;;;;;4.53;2.30;;;11.20;90.40;;;;;;5084197;28;20053;-50
2023/03/16 12:38:25;;;;;;;5.23;2.53;;;11.00;90.90;;;;;;5092965;28;20036;-50
2023/03/16 12:41:06;;;;;;;6.57;2.37;;;10.90;91.40;;;;;;5092962;28;20040;-52
2023/03/16 12:43:45;;;;;;;5.27;2.20;;;10.90;91.30;;;;;;5092820;28;20024;-48
2023/03/16 12:46:48;;;;;;;7.15;2.35;;;11.00;91.60;;;;;;5092837;28;20104;-51
2023/03/16 12:49:15;;;;;;;3.77;1.97;;;11.00;91.60;;;;;;5093150;28;20392;-47
2023/03/16 12:51:42;;;;;;;5.33;2.07;;;11.00;91.50;;;;;;5092751;28;20020;-51
2023/03/16 12:54:24;;;;;;;7.80;2.50;;;11.00;91.60;;;;;;5092501;28;20028;-49
2023/03/16 12:56:53;;;;;;;6.13;1.97;;;11.10;91.60;;;;;;5092550;28;20397;-49
2023/03/16 12:59:35;;;;;;;4.82;1.90;;;11.10;91.30;;;;;;5092594;28;20484;-51
2023/03/16 13:02:05;;;;;;;8.03;2.30;;;11.20;91.60;;;;;;5092566;28;20024;-50
2023/03/16 13:04:39;;;;;;;5.03;2.10;;;11.30;91.60;;;;;;5092410;28;20480;-50
2023/03/16 13:07:10;;;;;;;4.30;2.10;;;11.40;91.30;;;;;;5092431;28;20063;-49
2023/03/16 13:09:42;;;;;;;5.67;1.90;;;11.50;91.30;;;;;;5092416;28;20388;-47
2023/03/16 13:12:20;;;;;;;6.17;2.00;;;11.60;91.00;;;;;;5092135;28;20055;-47
2023/03/16 13:14:45;;;;;;;7.00;2.17;;;11.70;90.70;;;;;;5092057;28;20032;-51
2023/03/16 13:17:17;;;;;;;4.77;1.73;;;12.20;90.50;;;;;;5092122;28;20036;-51
2023/03/16 13:19:46;;;;;;;4.37;2.00;;;12.50;88.90;;;;;;5092275;28;20093;-49